Knottsville, Kentucky
Current Conditions -  °F | °C
As of 5:56 PM on Sunday 25 Jan 2015 (Local Time) from KOWB Reporting Station
Light Rain Light Rain  
Wind Chill: 41°   Ceiling: 1000
Heat Index: 41°   Visibility: 7mi
Dew Point: 40°   Wind: 0mph
Humidity: 96%   Direction: NA
Pressure: 29.66"   Gusts: NA
Location:  37.7285°N, 86.9409°W
Report Text: KOWB 252356Z 00000KT 7SM -RA SCT006 BKN010 OVC019 05/04 A2966 RMK AO2 53016 60023 T00500044 10061 20050 P0001 SLP047
Loading
Personal Weather Stations






























Interactive Weather Map New forecast layout! Learn more

10-Day Weather Forecast

Advertisements
Track Severe Weather on mobile